Mattoon, Illinois
Current Conditions -  °F | °C
As of 5:53 AM on Tuesday 21 Oct 2014 (Local Time) from KMTO Reporting Station
Clear Clear  
Wind Chill: 39°   Ceiling: Unl
Heat Index: 42°   Visibility: 10mi
Dew Point: 41°   Wind: 5mph
Humidity: 96%   Direction: 320°NW
Pressure: 30.05"   Gusts: NA
Location:  39.48°N, 88.37°W
Report Text: KMTO 211053Z AUTO 32004KT 10SM CLR 06/05 A3005 RMK AO2 SLP177 T00560050
Loading
Personal Weather Stations






























Interactive Weather Map
Tropical Storm Tracking
New forecast layout! Learn more

10-Day Weather Forecast

Advertisements
Track Severe Weather on mobile